Flight Track Log - Related Links

Times and Time Zones

All times are in EDT time to prevent confusion due to time zone crossing. See the EGF443G flight status page for this flight to view local times or setup timezone preferences in your user account.

Time Position Orientation Groundspeed Altitude Reporting Facility
EDT Latitude Longitude Course Direction KTS MPH feet Rate Location/Type
Tue 09:13:26 AM 32.3915 -94.7438 189° South  Level Estimated
Tue 09:14:26 AM 32.4086 -94.8184 154° Southeast  Level Estimated
Tue 09:15:29 AM 32.3064 -94.7589 277° West 253 291 8,300  Level Fort Worth Center
Tue 09:16:28 AM 32.3169 -94.8544 281° West 276 318 10,000 1,361 Climbing Fort Worth Center
Tue 09:17:28 AM 32.3311 -94.9425 281° West 286 329 11,000 1,300 Climbing Fort Worth Center
Tue 09:18:28 AM 32.3500 -95.0550 275° West 340 391 12,600 1,983 Climbing Fort Worth Center
Tue 09:19:29 AM 32.3583 -95.1706 261° West 356 410 15,000 1,686 Climbing Fort Worth Center
Tue 09:20:29 AM 32.3436 -95.2839 310° West 353 406 16,000 500 Climbing Fort Worth Center
Tue 09:21:29 AM 32.4164 -95.3881 328° Northwest 375 432 16,000  Level Fort Worth Center
Tue 09:22:28 AM 32.5156 -95.4622 328° Northwest 387 445 16,000  Level Fort Worth Center
Tue 09:23:28 AM 32.6169 -95.5364 327° Northwest 409 471 16,000  Level Fort Worth Center
Tue 09:24:29 AM 32.7119 -95.6086 327° Northwest 414 476 16,000  Level Fort Worth Center
Tue 09:25:28 AM 32.8194 -95.6903 328° Northwest 415 478 16,000  Level Fort Worth Center
Tue 09:27:28 AM 33.0261 -95.8425 340° North 437 503 16,000  Level Fort Worth Center
Tue 09:28:29 AM 33.1183 -95.8831 346° North 404 465 16,000 -65 Level Fort Worth Center
Tue 09:29:01 AM 33.1919 -95.9056 327° Northwest 393 452 15,900 -83 Descending FAA TRACON SMA TRACON (SMA)
Tue 09:29:41 AM 33.2508 -95.9519 320° Northwest 399 459 15,900  Level FAA TRACON SMA TRACON (SMA)
Tue 09:30:21 AM 33.3103 -96.0108 321° Northwest 404 465 15,900  Level FAA TRACON SMA TRACON (SMA)
Tue 09:31:00 AM 33.3689 -96.0678 321° Northwest 400 460 15,900  Level FAA TRACON SMA TRACON (SMA)
Tue 09:31:41 AM 33.4289 -96.1261 320° Northwest 398 458 15,900  Level FAA TRACON SMA TRACON (SMA)
Tue 09:32:21 AM 33.4806 -96.1786 281° West 398 458 15,900  Level FAA TRACON SMA TRACON (SMA)
Tue 09:33:02 AM 33.4931 -96.2536 246° West 364 419 15,900  Level FAA TRACON SMA TRACON (SMA)
Tue 09:33:40 AM 33.4719 -96.3108 231° Southwest 305 351 15,900  Level FAA TRACON SMA TRACON (SMA)
Tue 09:34:20 AM 33.4372 -96.3614 224° Southwest 279 321 15,900 -444 Level FAA TRACON SMA TRACON (SMA)
Tue 09:35:01 AM 33.4011 -96.4036 224° Southwest 261 300 15,300 -1,111 Descending FAA TRACON SMA TRACON (SMA)
Tue 09:35:41 AM 33.3694 -96.4406 224° Southwest 256 295 14,400 -1,350 Descending FAA TRACON SMA TRACON (SMA)
Tue 09:36:21 AM 33.3358 -96.4789 225° Southwest 238 274 13,500 -1,425 Descending FAA TRACON SMA TRACON (SMA)
Tue 09:37:01 AM 33.3047 -96.5167 225° Southwest 229 264 12,500 -1,367 Descending FAA TRACON SMA TRACON (SMA)
Tue 09:37:40 AM 33.2756 -96.5511 224° Southwest 240 276 11,700 -1,215 Descending FAA TRACON SMA TRACON (SMA)
Tue 09:38:20 AM 33.2428 -96.5894 225° Southwest 239 275 10,900 -600 Descending FAA TRACON SMA TRACON (SMA)
Tue 09:39:00 AM 33.2086 -96.6306 226° Southwest 252 290 10,900  Level FAA TRACON SMA TRACON (SMA)
Tue 09:39:41 AM 33.1786 -96.6672 224° Southwest 251 289 10,900  Level FAA TRACON SMA TRACON (SMA)
Tue 09:40:21 AM 33.1433 -96.7072 225° Southwest 252 290 10,900  Level FAA TRACON SMA TRACON (SMA)
Tue 09:41:04 AM 33.1042 -96.7533 224° Southwest 258 297 10,900  Level FAA TRACON SMA TRACON (SMA)
Tue 09:41:40 AM 33.0767 -96.7850 224° Southwest 256 295 10,900  Level FAA TRACON SMA TRACON (SMA)
Tue 09:42:21 AM 33.0422 -96.8250 224° Southwest 247 284 10,900  Level FAA TRACON SMA TRACON (SMA)
Tue 09:43:00 AM 33.0131 -96.8586 223° Southwest 205 236 10,900  Level FAA TRACON SMA TRACON (SMA)
Tue 09:43:41 AM 32.9875 -96.8872 197° South 205 236 10,900 -73 Level FAA TRACON SMA TRACON (SMA)
Tue 09:44:22 AM 32.9481 -96.9019 180° South 226 260 10,800 -900 Descending FAA TRACON SMA TRACON (SMA)
Tue 09:45:01 AM 32.9031 -96.9022 182° South 236 272 9,700 -1,519 Descending FAA TRACON SMA TRACON (SMA)
Tue 09:45:41 AM 32.8622 -96.9039 181° South 238 274 8,800 -1,500 Descending FAA TRACON SMA TRACON (SMA)
Tue 09:46:21 AM 32.8142 -96.9053 181° South 250 288 7,700 -1,350 Descending FAA TRACON SMA TRACON (SMA)
Tue 09:47:01 AM 32.7725 -96.9058 181° South 240 276 7,000 -1,050 Descending FAA TRACON SMA TRACON (SMA)
Tue 09:47:41 AM 32.7283 -96.9067 181° South 228 262 6,300 -825 Descending FAA TRACON SMA TRACON (SMA)
Tue 09:48:21 AM 32.6842 -96.9075 180° South 227 261 5,900 -300 Descending FAA TRACON SMA TRACON (SMA)
Tue 09:49:01 AM 32.6447 -96.9078 198° South 232 267 5,900  Level FAA TRACON SMA TRACON (SMA)
Tue 09:49:41 AM 32.6042 -96.9236 271° West 242 278 5,900  Level FAA TRACON SMA TRACON (SMA)
Tue 09:50:21 AM 32.6050 -96.9753 322° Northwest 237 273 5,900 -300 Level FAA TRACON SMA TRACON (SMA)
Tue 09:51:01 AM 32.6358 -97.0042 351° North 235 270 5,500 -1,063 Descending FAA TRACON SMA TRACON (SMA)
Tue 09:51:40 AM 32.6744 -97.0114 North 201 231 4,500 -1,275 Descending FAA TRACON SMA TRACON (SMA)
Tue 09:52:21 AM 32.7086 -97.0100 North 175 201 3,800 -825 Descending FAA TRACON SMA TRACON (SMA)
Tue 09:53:00 AM 32.7361 -97.0094 360° North 160 184 3,400 -750 Descending FAA TRACON SMA TRACON (SMA)
Tue 09:53:41 AM 32.7661 -97.0094 360° North 154 177 2,800 -951 Descending FAA TRACON SMA TRACON (SMA)
Tue 09:54:22 AM 32.7964 -97.0094 360° North 158 182 2,100 -825 Descending FAA TRACON SMA TRACON (SMA)
Tue 09:55:01 AM 32.8189 -97.0094 North 130 150 1,700 -684 Descending FAA TRACON SMA TRACON (SMA)
Tue 09:55:41 AM 32.8436 -97.0092 359° North 128 147 1,200 -750 Descending FAA TRACON SMA TRACON (SMA)
Tue 09:56:21 AM 32.8686 -97.0094 320° Northwest 131 151 700 -750 Descending FAA TRACON SMA TRACON (SMA)
Tue 10:03:26 AM 33.2206 -97.3674 139° Southeast  Level Estimated
Tue 10:04:26 AM 33.1710 -97.3167 139° Southeast  Level Estimated
Tue 10:05:26 AM 33.1213 -97.2660 140° Southeast  Level Estimated
Tue 10:06:26 AM 33.0716 -97.2154 140° Southeast  Level Estimated

Login

Don't have an account? Register now (free) for customized features, flight alerts, and more!